Terminal Aerodrome Forecast
Issued by NWS

Home | Current Version | Previous Version | Text Only | Print | Product List | Glossary On
Versions: 1 2 3 4 5 6 7 8 9 10 11 12 13 14 15 16
021
FTUS42 KGSP 292320
TAFGMU
TAF
KGMU 292320Z 3000/3024 26007KT P6SM FEW045 SCT110
      TEMPO 3000/3002 VRB10G17KT 4SM -TSRA BKN040CB
     FM300200 25006KT P6SM BKN070
     FM300400 25003KT P6SM SCT070
     FM301800 24008KT P6SM SCT070 PROB30 3020/3024 4SM -TSRA
      BKN090CB=

USA.gov is the U.S. government's official web portal to all federal, state and local government web resources and services.